createdAt,value
2018-01-13T00:00:42.157Z,257.10
2018-01-13T00:01:42.145Z,267.80
2018-01-13T00:02:42.096Z,286.90
2018-01-13T00:03:42.039Z,267.60
2018-01-13T00:04:42.002Z,277.70
2018-01-13T00:05:41.963Z,290.20
2018-01-13T00:06:41.920Z,301.80
2018-01-13T00:07:41.883Z,303.90
2018-01-13T00:08:41.846Z,311.60
2018-01-13T00:09:41.806Z,310.00
2018-01-13T00:10:41.766Z,337.30
2018-01-13T00:11:41.735Z,314.60
2018-01-13T00:12:41.688Z,303.10
2018-01-13T00:13:41.649Z,332.10
2018-01-13T00:14:41.608Z,329.60
2018-01-13T00:15:41.574Z,304.20
2018-01-13T00:16:41.529Z,346.30
2018-01-13T00:17:41.489Z,320.70
2018-01-13T00:18:41.464Z,322.20
2018-01-13T00:19:41.418Z,323.00
2018-01-13T00:20:41.371Z,315.00
2018-01-13T00:21:41.332Z,322.30
2018-01-13T00:22:41.292Z,317.30
2018-01-13T00:23:41.280Z,323.90
2018-01-13T00:24:41.215Z,346.60
2018-01-13T00:25:41.173Z,359.80
2018-01-13T00:26:41.135Z,380.00
2018-01-13T00:27:41.094Z,361.40
2018-01-13T00:28:41.056Z,346.40
2018-01-13T00:29:41.022Z,360.50
2018-01-13T00:30:40.975Z,356.50
2018-01-13T00:31:40.939Z,333.90
2018-01-13T00:32:40.901Z,363.90
2018-01-13T00:33:40.858Z,371.40
2018-01-13T00:34:40.824Z,397.90
2018-01-13T00:35:40.793Z,373.00
2018-01-13T00:36:40.741Z,387.30
2018-01-13T00:37:40.702Z,395.60
2018-01-13T00:38:40.673Z,402.70
2018-01-13T00:39:40.628Z,391.50
2018-01-13T00:40:40.583Z,390.50
2018-01-13T00:41:40.544Z,395.30
2018-01-13T00:42:40.505Z,416.00
2018-01-13T00:43:40.462Z,412.30
2018-01-13T00:44:40.422Z,419.10
2018-01-13T00:45:40.384Z,423.00
2018-01-13T00:46:40.343Z,404.20
2018-01-13T00:47:40.304Z,434.50
2018-01-13T00:48:40.270Z,399.20
2018-01-13T00:49:40.234Z,417.60
2018-01-13T00:50:40.185Z,412.10
2018-01-13T00:51:40.165Z,392.10
2018-01-13T00:52:40.107Z,421.60
2018-01-13T00:53:40.071Z,423.50
2018-01-13T00:54:40.026Z,418.90
2018-01-13T00:55:39.988Z,413.20
2018-01-13T00:56:39.948Z,430.80
2018-01-13T00:57:39.906Z,439.80
2018-01-13T00:58:39.864Z,420.20
2018-01-13T00:59:39.827Z,441.80
2018-01-13T01:00:39.788Z,432.70
2018-01-13T01:01:39.750Z,438.40
2018-01-13T01:02:39.741Z,416.10
2018-01-13T01:03:39.666Z,428.00
2018-01-13T01:04:39.627Z,420.50
2018-01-13T01:05:39.603Z,428.20
2018-01-13T01:06:39.597Z,425.10
2018-01-13T01:07:39.510Z,429.30
2018-01-13T01:08:39.467Z,427.60
2018-01-13T01:09:39.429Z,430.20
2018-01-13T01:10:39.390Z,427.30
2018-01-13T01:11:39.348Z,423.40
2018-01-13T01:12:39.309Z,426.40
2018-01-13T01:13:39.268Z,440.30
2018-01-13T01:14:39.232Z,430.70
2018-01-13T01:15:39.191Z,445.50
2018-01-13T01:16:39.148Z,427.90
2018-01-13T01:17:39.109Z,406.40
2018-01-13T01:18:39.070Z,387.30
2018-01-13T01:19:39.037Z,378.40
2018-01-13T01:20:38.989Z,389.40
2018-01-13T01:21:38.956Z,354.40
2018-01-13T01:22:38.912Z,356.20
2018-01-13T01:23:38.870Z,340.30
2018-01-13T01:24:38.830Z,325.70
2018-01-13T01:25:38.791Z,335.90
2018-01-13T01:26:38.750Z,318.60
2018-01-13T01:27:38.711Z,319.10
2018-01-13T01:28:38.672Z,315.30
2018-01-13T01:29:38.631Z,315.90
2018-01-13T01:30:38.589Z,335.40
2018-01-13T01:31:38.551Z,329.60
2018-01-13T01:32:38.510Z,319.80
2018-01-13T01:33:38.472Z,358.20
2018-01-13T01:34:38.430Z,372.40
2018-01-13T01:35:38.394Z,382.00
2018-01-13T01:36:38.353Z,362.30
2018-01-13T01:37:38.343Z,375.90
2018-01-13T01:38:38.275Z,357.60
2018-01-13T01:39:38.234Z,382.40
2018-01-13T01:40:38.194Z,402.30
2018-01-13T01:41:38.153Z,380.70
2018-01-13T01:42:38.111Z,381.20
2018-01-13T01:43:38.080Z,428.50
2018-01-13T01:44:38.035Z,420.00
2018-01-13T01:45:37.996Z,405.90
2018-01-13T01:46:37.953Z,396.40
2018-01-13T01:47:37.916Z,407.50
2018-01-13T01:48:37.873Z,413.20
2018-01-13T01:49:37.834Z,417.40
2018-01-13T01:50:37.796Z,427.50
2018-01-13T01:51:37.754Z,410.60
2018-01-13T01:52:37.714Z,406.30
2018-01-13T01:53:37.674Z,406.60
2018-01-13T01:54:37.634Z,430.50
2018-01-13T01:55:37.594Z,428.50
2018-01-13T01:56:37.556Z,443.10
2018-01-13T01:57:37.515Z,424.60
2018-01-13T01:58:37.475Z,423.70
2018-01-13T01:59:37.438Z,425.40
2018-01-13T02:00:37.400Z,437.90
2018-01-13T02:01:37.386Z,419.80
2018-01-13T02:02:37.326Z,416.40
2018-01-13T02:03:37.308Z,420.30
2018-01-13T02:04:37.235Z,402.60
2018-01-13T02:05:37.196Z,402.90
2018-01-13T02:06:37.154Z,416.50
2018-01-13T02:07:37.115Z,405.80
2018-01-13T02:08:37.077Z,385.20
2018-01-13T02:09:37.034Z,381.40
2018-01-13T02:10:36.996Z,366.90
2018-01-13T02:11:36.954Z,385.90
2018-01-13T02:12:36.916Z,356.80
2018-01-13T02:13:36.876Z,372.40
2018-01-13T02:14:36.837Z,348.50
2018-01-13T02:15:36.796Z,344.00
2018-01-13T02:16:36.760Z,373.20
2018-01-13T02:17:36.717Z,375.80
2018-01-13T02:18:36.675Z,390.10
2018-01-13T02:19:36.637Z,368.60
2018-01-13T02:20:36.598Z,377.10
2018-01-13T02:21:36.559Z,376.10
2018-01-13T02:22:36.517Z,372.70
2018-01-13T02:23:36.479Z,367.00
2018-01-13T02:24:36.437Z,369.70
2018-01-13T02:25:36.399Z,355.40
2018-01-13T02:26:36.356Z,372.90
2018-01-13T02:27:36.340Z,369.60
2018-01-13T02:28:36.282Z,369.50
2018-01-13T02:29:36.272Z,373.10
2018-01-13T02:30:36.210Z,357.30
2018-01-13T02:31:36.182Z,368.40
2018-01-13T02:32:36.121Z,358.30
2018-01-13T02:33:36.082Z,344.20
2018-01-13T02:34:36.042Z,352.40
2018-01-13T02:35:36.003Z,345.20
2018-01-13T02:36:35.965Z,341.40
2018-01-13T02:37:35.920Z,350.90
2018-01-13T02:38:35.883Z,329.70
2018-01-13T02:39:35.844Z,326.10
2018-01-13T02:40:35.804Z,340.90
2018-01-13T02:41:35.764Z,334.00
2018-01-13T02:42:35.728Z,334.20
2018-01-13T02:43:35.686Z,320.50
2018-01-13T02:44:35.647Z,342.80
2018-01-13T02:45:35.606Z,319.80
2018-01-13T02:46:35.566Z,356.80
2018-01-13T02:47:35.525Z,355.00
2018-01-13T02:48:35.485Z,364.30
2018-01-13T02:49:35.447Z,363.10
2018-01-13T02:50:35.407Z,359.10
2018-01-13T02:51:35.368Z,356.30
2018-01-13T02:52:35.328Z,345.00
2018-01-13T02:53:35.314Z,374.90
2018-01-13T02:54:35.248Z,373.40
2018-01-13T02:55:35.210Z,367.20
2018-01-13T02:56:35.171Z,348.50
2018-01-13T02:57:35.128Z,340.30
2018-01-13T02:58:35.088Z,327.40
2018-01-13T02:59:35.052Z,312.20
2018-01-13T03:00:35.018Z,335.30
2018-01-13T03:01:34.972Z,340.80
2018-01-13T03:02:34.935Z,351.50
2018-01-13T03:03:34.891Z,335.90
2018-01-13T03:04:34.851Z,366.70
2018-01-13T03:05:34.809Z,350.00
2018-01-13T03:06:34.771Z,351.60
2018-01-13T03:07:34.734Z,327.60
2018-01-13T03:08:34.695Z,353.40
2018-01-13T03:09:34.652Z,343.20
2018-01-13T03:10:34.614Z,352.10
2018-01-13T03:11:34.571Z,341.50
2018-01-13T03:12:34.534Z,327.80
2018-01-13T03:13:34.493Z,345.30
2018-01-13T03:14:34.455Z,358.00
2018-01-13T03:15:34.416Z,334.30
2018-01-13T03:16:34.384Z,328.40
2018-01-13T03:17:34.334Z,348.50
2018-01-13T03:18:34.323Z,335.60
2018-01-13T03:19:34.256Z,334.20
2018-01-13T03:20:34.218Z,346.10
2018-01-13T03:21:34.175Z,344.90
2018-01-13T03:22:34.137Z,337.90
2018-01-13T03:23:34.100Z,336.90
2018-01-13T03:24:34.058Z,348.20
2018-01-13T03:25:34.027Z,338.70
2018-01-13T03:26:33.981Z,358.10
2018-01-13T03:27:33.941Z,355.00
2018-01-13T03:28:33.927Z,355.90
2018-01-13T03:29:33.859Z,349.20
2018-01-13T03:30:33.822Z,360.10
2018-01-13T03:31:33.786Z,366.70
2018-01-13T03:32:33.746Z,346.20
2018-01-13T03:33:33.699Z,330.90
2018-01-13T03:34:33.662Z,342.90
2018-01-13T03:35:33.620Z,332.90
2018-01-13T03:36:33.605Z,346.80
2018-01-13T03:37:33.549Z,339.60
2018-01-13T03:38:33.501Z,334.00
2018-01-13T03:39:33.465Z,335.80
2018-01-13T03:40:33.423Z,344.60
2018-01-13T03:41:33.381Z,343.10
2018-01-13T03:42:33.343Z,339.40
2018-01-13T03:43:33.306Z,331.10
2018-01-13T03:44:33.275Z,344.40
2018-01-13T03:45:33.225Z,339.10
2018-01-13T03:46:33.183Z,346.60
2018-01-13T03:47:33.145Z,347.30
2018-01-13T03:48:33.106Z,346.90
2018-01-13T03:49:33.065Z,331.90
2018-01-13T03:50:33.024Z,309.90
2018-01-13T03:51:33.002Z,326.10
2018-01-13T03:52:32.946Z,309.20
2018-01-13T03:53:32.906Z,311.40
2018-01-13T03:54:32.865Z,310.00
2018-01-13T03:55:32.854Z,309.70
2018-01-13T03:56:32.812Z,315.50
2018-01-13T03:57:32.746Z,305.30
2018-01-13T03:58:32.708Z,286.40
2018-01-13T03:59:32.666Z,294.60
2018-01-13T04:00:32.654Z,284.60
2018-01-13T04:01:32.588Z,290.30
2018-01-13T04:02:32.558Z,291.00
2018-01-13T04:03:32.510Z,294.60
2018-01-13T04:04:32.467Z,292.30
2018-01-13T04:05:32.429Z,291.80
2018-01-13T04:06:32.388Z,267.50
2018-01-13T04:07:32.353Z,296.00
2018-01-13T04:08:32.317Z,273.00
2018-01-13T04:09:32.270Z,281.50
2018-01-13T04:10:32.231Z,289.20
2018-01-13T04:11:32.191Z,265.10
2018-01-13T04:12:32.153Z,291.50
2018-01-13T04:13:32.114Z,287.80
2018-01-13T04:14:32.073Z,309.40
2018-01-13T04:15:32.034Z,274.90
2018-01-13T04:16:31.994Z,283.20
2018-01-13T04:17:31.952Z,288.80
2018-01-13T04:18:31.916Z,280.00
2018-01-13T04:19:31.879Z,305.90
2018-01-13T04:20:31.836Z,277.90
2018-01-13T04:21:31.794Z,297.60
2018-01-13T04:22:31.755Z,285.40
2018-01-13T04:23:31.748Z,260.10
2018-01-13T04:24:31.677Z,280.50
2018-01-13T04:25:31.636Z,263.40
2018-01-13T04:26:31.597Z,280.20
2018-01-13T04:27:31.559Z,278.60
2018-01-13T04:28:31.545Z,276.90
2018-01-13T04:29:31.494Z,278.70
2018-01-13T04:30:31.439Z,269.60
2018-01-13T04:31:31.400Z,287.40
2018-01-13T04:32:31.361Z,270.30
2018-01-13T04:33:31.319Z,276.10
2018-01-13T04:34:31.280Z,289.10
2018-01-13T04:35:31.241Z,317.80
2018-01-13T04:36:31.204Z,302.90
2018-01-13T04:37:31.160Z,322.50
2018-01-13T04:38:31.122Z,317.60
2018-01-13T04:39:31.085Z,316.80
2018-01-13T04:40:31.045Z,324.70
2018-01-13T04:41:31.003Z,344.70
2018-01-13T04:42:30.963Z,335.80
2018-01-13T04:43:31.417Z,341.50
2018-01-13T04:44:30.884Z,359.90
2018-01-13T04:45:30.846Z,344.80
2018-01-13T04:46:31.417Z,373.20
2018-01-13T04:47:30.767Z,349.30
2018-01-13T04:48:30.727Z,370.90
2018-01-13T04:49:30.684Z,370.50
2018-01-13T04:50:30.646Z,385.90
2018-01-13T04:51:30.606Z,373.50
2018-01-13T04:52:30.563Z,405.80
2018-01-13T04:53:30.526Z,379.80
2018-01-13T04:54:30.488Z,381.70
2018-01-13T04:55:30.446Z,392.60
2018-01-13T04:56:30.405Z,375.80
2018-01-13T04:57:30.367Z,378.80
2018-01-13T04:58:30.327Z,371.40
2018-01-13T04:59:30.287Z,370.50
2018-01-13T05:00:30.246Z,387.30
2018-01-13T05:01:30.204Z,390.80
2018-01-13T05:02:30.163Z,370.60
2018-01-13T05:03:30.127Z,391.80
2018-01-13T05:04:30.085Z,370.60
2018-01-13T05:05:30.046Z,377.20
2018-01-13T05:06:30.008Z,378.10
2018-01-13T05:07:29.966Z,360.10
2018-01-13T05:08:29.924Z,358.30
2018-01-13T05:09:29.885Z,369.70
2018-01-13T05:10:29.845Z,365.30
2018-01-13T05:11:29.828Z,382.70
2018-01-13T05:12:29.764Z,359.70
2018-01-13T05:13:29.726Z,377.90
2018-01-13T05:14:29.683Z,363.10
2018-01-13T05:15:29.647Z,356.10
2018-01-13T05:16:29.624Z,361.80
2018-01-13T05:17:29.565Z,328.20
2018-01-13T05:18:29.523Z,340.50
2018-01-13T05:19:29.503Z,331.00
2018-01-13T05:20:29.444Z,310.30
2018-01-13T05:21:29.402Z,304.40
2018-01-13T05:22:29.364Z,302.40
2018-01-13T05:23:29.324Z,325.10
2018-01-13T05:24:29.293Z,311.30
2018-01-13T05:25:29.245Z,291.30
2018-01-13T05:26:29.203Z,285.00
2018-01-13T05:27:29.163Z,284.20
2018-01-13T05:28:29.124Z,279.20
2018-01-13T05:29:29.086Z,287.30
2018-01-13T05:30:29.045Z,293.80
2018-01-13T05:31:29.007Z,287.50
2018-01-13T05:32:28.980Z,277.80
2018-01-13T05:33:28.927Z,257.50
2018-01-13T05:34:28.885Z,237.10
2018-01-13T05:35:28.843Z,234.40
2018-01-13T05:36:28.806Z,226.90
2018-01-13T05:37:28.768Z,224.30
2018-01-13T05:38:28.727Z,206.00
2018-01-13T05:39:28.686Z,184.60
2018-01-13T05:40:28.646Z,189.80
2018-01-13T05:41:28.606Z,191.10
2018-01-13T05:42:28.567Z,206.30
2018-01-13T05:43:28.529Z,205.80
2018-01-13T05:44:28.487Z,201.50
2018-01-13T05:45:28.449Z,208.30
2018-01-13T05:46:28.407Z,197.30
2018-01-13T05:47:28.368Z,196.60
2018-01-13T05:48:28.330Z,201.50
2018-01-13T05:49:28.288Z,218.20
2018-01-13T05:50:28.250Z,201.00
2018-01-13T05:51:28.210Z,191.60
2018-01-13T05:52:28.171Z,198.30
2018-01-13T05:53:28.152Z,185.60
2018-01-13T05:54:28.092Z,184.80
2018-01-13T05:55:28.052Z,173.40
2018-01-13T05:56:28.014Z,174.10
2018-01-13T05:57:27.973Z,163.60
2018-01-13T05:58:27.933Z,163.00
2018-01-13T05:59:27.892Z,158.20
2018-01-13T06:00:27.853Z,152.30
2018-01-13T06:01:27.812Z,163.00
2018-01-13T06:02:27.773Z,170.30
2018-01-13T06:03:27.734Z,151.90
2018-01-13T06:04:27.694Z,148.40
2018-01-13T06:05:27.653Z,160.70
2018-01-13T06:06:27.648Z,162.00
2018-01-13T06:07:27.575Z,145.90
2018-01-13T06:08:27.537Z,154.80
2018-01-13T06:09:27.495Z,161.80
2018-01-13T06:10:27.456Z,139.80
2018-01-13T06:11:27.416Z,148.90
2018-01-13T06:12:27.376Z,126.20
2018-01-13T06:13:27.336Z,128.80
2018-01-13T06:14:27.302Z,131.50
2018-01-13T06:15:27.256Z,145.30
2018-01-13T06:16:27.217Z,133.40
2018-01-13T06:17:27.177Z,137.60
2018-01-13T06:18:27.138Z,131.40
2018-01-13T06:19:27.099Z,127.50
2018-01-13T06:20:27.060Z,123.90
2018-01-13T06:21:27.020Z,116.70
2018-01-13T06:22:26.979Z,110.90
2018-01-13T06:23:26.940Z,119.30
2018-01-13T06:24:26.900Z,116.20
2018-01-13T06:25:26.862Z,108.90
2018-01-13T06:26:26.821Z,117.70
2018-01-13T06:27:26.783Z,116.20
2018-01-13T06:28:26.762Z,112.80
2018-01-13T06:29:26.705Z,112.70
2018-01-13T06:30:26.659Z,101.20
2018-01-13T06:31:26.622Z,112.30
2018-01-13T06:32:26.582Z,106.40
2018-01-13T06:33:26.542Z,104.50
2018-01-13T06:34:26.506Z,93.10
2018-01-13T06:35:26.465Z,108.20
2018-01-13T06:36:26.425Z,108.70
2018-01-13T06:37:26.385Z,106.30
2018-01-13T06:38:26.348Z,110.80
2018-01-13T06:39:26.306Z,102.80
2018-01-13T06:40:26.266Z,107.30
2018-01-13T06:41:26.228Z,108.20
2018-01-13T06:42:26.187Z,94.40
2018-01-13T06:43:26.148Z,98.00
2018-01-13T06:44:26.109Z,107.80
2018-01-13T06:45:26.068Z,100.10
2018-01-13T06:46:26.033Z,108.60
2018-01-13T06:47:25.991Z,102.00
2018-01-13T06:48:25.952Z,102.00
2018-01-13T06:49:25.911Z,98.90
2018-01-13T06:50:25.872Z,104.20
2018-01-13T06:51:25.834Z,99.10
2018-01-13T06:52:25.792Z,102.20
2018-01-13T06:53:25.754Z,105.80
2018-01-13T06:54:25.712Z,96.40
2018-01-13T06:55:25.680Z,98.70
2018-01-13T06:56:25.652Z,103.70
2018-01-13T06:57:25.595Z,105.20
2018-01-13T06:58:25.556Z,104.00
2018-01-13T06:59:25.515Z,107.60
2018-01-13T07:00:25.475Z,99.90
2018-01-13T07:01:25.435Z,97.50
2018-01-13T07:02:25.399Z,86.90
2018-01-13T07:03:25.372Z,87.60
2018-01-13T07:04:25.317Z,90.80
2018-01-13T07:05:25.293Z,84.50
2018-01-13T07:06:25.246Z,75.60
2018-01-13T07:07:25.198Z,78.10
2018-01-13T07:08:25.159Z,88.60
2018-01-13T07:09:25.117Z,87.20
2018-01-13T07:10:25.079Z,72.20
2018-01-13T07:11:25.038Z,82.00
2018-01-13T07:12:25.002Z,79.90
2018-01-13T07:13:24.960Z,77.10
2018-01-13T07:14:24.923Z,83.70
2018-01-13T07:15:24.881Z,83.40
2018-01-13T07:16:24.841Z,78.10
2018-01-13T07:17:24.803Z,90.10
2018-01-13T07:18:24.767Z,79.70
2018-01-13T07:19:24.739Z,78.40
2018-01-13T07:20:24.684Z,85.50
2018-01-13T07:21:24.641Z,86.30
2018-01-13T07:22:24.606Z,77.40
2018-01-13T07:23:24.567Z,85.20
2018-01-13T07:24:24.524Z,81.80
2018-01-13T07:25:24.485Z,78.80
2018-01-13T07:26:24.448Z,82.70
2018-01-13T07:27:24.406Z,84.40
2018-01-13T07:28:24.454Z,88.40
2018-01-13T07:29:24.325Z,87.20
2018-01-13T07:30:24.287Z,86.30
2018-01-13T07:31:24.248Z,88.00
2018-01-13T07:32:24.211Z,86.50
2018-01-13T07:33:24.170Z,83.70
2018-01-13T07:34:24.129Z,89.80
2018-01-13T07:35:24.090Z,86.20
2018-01-13T07:36:24.052Z,84.80
2018-01-13T07:37:24.012Z,87.40
2018-01-13T07:38:23.973Z,79.90
2018-01-13T07:39:23.932Z,81.30
2018-01-13T07:40:23.893Z,84.80
2018-01-13T07:41:23.854Z,98.00
2018-01-13T07:42:23.813Z,80.70
2018-01-13T07:43:23.776Z,86.60
2018-01-13T07:44:23.736Z,83.50
2018-01-13T07:45:23.696Z,84.60
2018-01-13T07:46:23.657Z,86.90
2018-01-13T07:47:23.617Z,80.90
2018-01-13T07:48:23.575Z,89.40
2018-01-13T07:49:23.542Z,81.00
2018-01-13T07:50:23.500Z,86.30
2018-01-13T07:51:23.458Z,82.80
2018-01-13T07:52:23.424Z,75.30
2018-01-13T07:53:23.378Z,79.20
2018-01-13T07:54:23.346Z,77.10
2018-01-13T07:55:23.357Z,73.80
2018-01-13T07:56:23.265Z,74.40
2018-01-13T07:57:23.222Z,75.00
2018-01-13T07:58:23.183Z,80.50
2018-01-13T07:59:23.163Z,73.90
2018-01-13T08:00:23.103Z,78.90
2018-01-13T08:01:23.063Z,78.90
2018-01-13T08:02:23.023Z,81.90
2018-01-13T08:03:22.985Z,75.70
2018-01-13T08:04:22.943Z,72.70
2018-01-13T08:05:22.904Z,70.20
2018-01-13T08:06:22.865Z,71.60
2018-01-13T08:07:22.825Z,75.00
2018-01-13T08:08:22.787Z,76.40
2018-01-13T08:09:22.746Z,65.20
2018-01-13T08:10:22.708Z,69.10
2018-01-13T08:11:22.667Z,68.10
2018-01-13T08:12:22.631Z,72.20
2018-01-13T08:13:22.589Z,70.60
2018-01-13T08:14:22.551Z,76.30
2018-01-13T08:15:22.510Z,76.20
2018-01-13T08:16:22.471Z,70.40
2018-01-13T08:17:22.430Z,81.10
2018-01-13T08:18:22.392Z,77.00
2018-01-13T08:19:22.352Z,77.30
2018-01-13T08:20:22.312Z,67.50
2018-01-13T08:21:22.272Z,73.20
2018-01-13T08:22:22.233Z,61.40
2018-01-13T08:23:22.195Z,74.30
2018-01-13T08:24:22.155Z,71.90
2018-01-13T08:25:22.117Z,68.10
2018-01-13T08:26:22.078Z,79.20
2018-01-13T08:27:22.036Z,67.30
2018-01-13T08:28:21.994Z,72.30
2018-01-13T08:29:21.954Z,70.40
2018-01-13T08:30:21.918Z,71.00
2018-01-13T08:31:21.875Z,65.30
2018-01-13T08:32:21.839Z,74.50
2018-01-13T08:33:21.798Z,70.20
2018-01-13T08:34:21.759Z,65.70
2018-01-13T08:35:21.722Z,67.00
2018-01-13T08:36:21.681Z,68.10
2018-01-13T08:37:21.643Z,66.60
2018-01-13T08:38:21.601Z,72.00
2018-01-13T08:39:21.561Z,72.60
2018-01-13T08:40:21.523Z,69.00
2018-01-13T08:41:21.481Z,74.40
2018-01-13T08:42:21.443Z,72.30
2018-01-13T08:43:21.408Z,72.70
2018-01-13T08:44:21.365Z,77.50
2018-01-13T08:45:21.355Z,75.90
2018-01-13T08:46:21.286Z,74.60
2018-01-13T08:47:21.247Z,77.40
2018-01-13T08:48:21.209Z,80.40
2018-01-13T08:49:21.216Z,72.60
2018-01-13T08:50:21.127Z,85.50
2018-01-13T08:51:21.087Z,72.80
2018-01-13T08:52:21.060Z,79.30
2018-01-13T08:53:21.009Z,75.50
2018-01-13T08:54:20.969Z,80.60
2018-01-13T08:55:20.930Z,75.70
2018-01-13T08:56:20.890Z,81.60
2018-01-13T08:57:20.852Z,80.90
2018-01-13T08:58:20.809Z,77.00
2018-01-13T08:59:20.771Z,73.70
2018-01-13T09:00:20.731Z,77.70
2018-01-13T09:01:20.691Z,69.70
2018-01-13T09:02:20.650Z,73.60
2018-01-13T09:03:20.622Z,75.00
2018-01-13T09:04:20.572Z,71.20
2018-01-13T09:05:20.534Z,67.30
2018-01-13T09:06:20.494Z,81.70
2018-01-13T09:07:20.456Z,78.40
2018-01-13T09:08:20.424Z,65.70
2018-01-13T09:09:20.375Z,66.30
2018-01-13T09:10:20.333Z,68.90
2018-01-13T09:11:20.296Z,69.20
2018-01-13T09:12:20.257Z,69.30
2018-01-13T09:13:20.217Z,67.70
2018-01-13T09:14:20.177Z,60.70
2018-01-13T09:15:20.139Z,69.70
2018-01-13T09:16:20.099Z,61.60
2018-01-13T09:17:20.060Z,63.70
2018-01-13T09:18:20.038Z,61.70
2018-01-13T09:19:20.001Z,50.80
2018-01-13T09:20:19.961Z,54.30
2018-01-13T09:21:19.933Z,48.50
2018-01-13T09:22:19.861Z,55.00
2018-01-13T09:23:19.822Z,47.40
2018-01-13T09:24:19.785Z,40.60
2018-01-13T09:25:19.741Z,51.00
2018-01-13T09:26:19.713Z,46.10
2018-01-13T09:27:19.662Z,44.70
2018-01-13T09:28:19.625Z,47.50
2018-01-13T09:29:19.582Z,49.20
2018-01-13T09:30:19.543Z,44.90
2018-01-13T09:31:19.504Z,40.30
2018-01-13T09:32:19.465Z,46.20
2018-01-13T09:33:19.424Z,44.90
2018-01-13T09:34:19.385Z,45.30
2018-01-13T09:35:19.349Z,47.20
2018-01-13T09:36:19.308Z,50.30
2018-01-13T09:37:19.267Z,48.20
2018-01-13T09:38:19.228Z,50.80
2018-01-13T09:39:19.188Z,46.90
2018-01-13T09:40:19.148Z,47.70
2018-01-13T09:41:19.109Z,47.50
2018-01-13T09:42:19.069Z,48.00
2018-01-13T09:43:19.030Z,50.80
2018-01-13T09:44:18.990Z,48.80
2018-01-13T09:45:18.981Z,50.60
2018-01-13T09:46:18.910Z,43.30
2018-01-13T09:47:18.872Z,47.60
2018-01-13T09:48:18.833Z,43.80
2018-01-13T09:49:18.795Z,41.90
2018-01-13T09:50:18.752Z,44.50
2018-01-13T09:51:18.712Z,46.30
2018-01-13T09:52:18.690Z,44.60
2018-01-13T09:53:18.636Z,48.30
2018-01-13T09:54:18.596Z,47.90
2018-01-13T09:55:18.560Z,49.00
2018-01-13T09:56:18.517Z,46.60
2018-01-13T09:57:18.481Z,42.80
2018-01-13T09:58:18.437Z,47.90
2018-01-13T09:59:18.399Z,45.90
2018-01-13T10:00:18.358Z,45.60
2018-01-13T10:01:18.322Z,42.80
2018-01-13T10:02:18.277Z,41.30
2018-01-13T10:03:18.241Z,42.60
2018-01-13T10:04:18.198Z,41.70
2018-01-13T10:05:18.160Z,45.20
2018-01-13T10:06:18.121Z,41.90
2018-01-13T10:07:18.098Z,42.40
2018-01-13T10:08:18.042Z,40.00
2018-01-13T10:09:18.002Z,37.70
2018-01-13T10:10:17.959Z,31.40
2018-01-13T10:11:17.925Z,29.10
2018-01-13T10:12:17.881Z,30.60
2018-01-13T10:13:17.844Z,32.30
2018-01-13T10:14:17.805Z,29.70
2018-01-13T10:15:17.761Z,29.70
2018-01-13T10:16:17.724Z,27.80
2018-01-13T10:17:17.684Z,29.30
2018-01-13T10:18:17.645Z,30.40
2018-01-13T10:19:17.604Z,30.00
2018-01-13T10:20:17.566Z,31.00
2018-01-13T10:21:17.525Z,28.90
2018-01-13T10:22:17.488Z,30.40
2018-01-13T10:23:17.448Z,29.00
2018-01-13T10:24:17.410Z,30.10
2018-01-13T10:25:17.367Z,32.20
2018-01-13T10:26:17.327Z,32.00
2018-01-13T10:27:17.288Z,25.00
2018-01-13T10:28:17.252Z,30.40
2018-01-13T10:29:17.208Z,30.20
2018-01-13T10:30:17.176Z,28.20
2018-01-13T10:31:17.150Z,23.90
2018-01-13T10:32:17.092Z,23.20
2018-01-13T10:33:17.049Z,26.40
2018-01-13T10:34:17.041Z,27.20
2018-01-13T10:35:16.972Z,26.00
2018-01-13T10:36:16.934Z,22.40
2018-01-13T10:37:16.894Z,23.20
2018-01-13T10:38:16.853Z,24.10
2018-01-13T10:39:16.811Z,19.20
2018-01-13T10:40:16.821Z,27.50
2018-01-13T10:41:16.733Z,19.50
2018-01-13T10:42:16.694Z,21.50
2018-01-13T10:43:16.653Z,24.20
2018-01-13T10:44:16.616Z,25.80
2018-01-13T10:45:16.574Z,27.00
2018-01-13T10:46:16.534Z,25.00
2018-01-13T10:47:16.498Z,29.20
2018-01-13T10:48:16.456Z,26.40
2018-01-13T10:49:16.415Z,28.20
2018-01-13T10:50:16.375Z,24.60
2018-01-13T10:51:16.337Z,29.80
2018-01-13T10:52:16.298Z,26.00
2018-01-13T10:53:16.257Z,24.80
2018-01-13T10:54:16.251Z,27.70
2018-01-13T10:55:16.178Z,26.90
2018-01-13T10:56:16.140Z,27.60
2018-01-13T10:57:16.098Z,27.80
2018-01-13T10:58:16.057Z,25.70
2018-01-13T10:59:16.022Z,25.90
2018-01-13T11:00:15.983Z,25.20
2018-01-13T11:01:15.968Z,32.20
2018-01-13T11:02:15.901Z,29.30
2018-01-13T11:03:15.859Z,29.80
2018-01-13T11:04:15.822Z,26.10
2018-01-13T11:05:15.782Z,28.70
2018-01-13T11:06:15.768Z,25.40
2018-01-13T11:07:15.704Z,27.60
2018-01-13T11:08:15.666Z,29.00
2018-01-13T11:09:15.624Z,26.20
2018-01-13T11:10:15.584Z,26.90
2018-01-13T11:11:15.545Z,29.10
2018-01-13T11:12:15.505Z,27.20
2018-01-13T11:13:15.466Z,31.50
2018-01-13T11:14:15.427Z,23.50
2018-01-13T11:15:15.388Z,26.70
2018-01-13T11:16:15.349Z,31.90
2018-01-13T11:17:15.309Z,28.60
2018-01-13T11:18:15.269Z,31.10
2018-01-13T11:19:15.231Z,28.10
2018-01-13T11:20:15.193Z,28.40
2018-01-13T11:21:15.154Z,27.50
2018-01-13T11:22:15.116Z,26.60
2018-01-13T11:23:15.076Z,30.40
2018-01-13T11:24:15.037Z,29.80
2018-01-13T11:25:14.997Z,27.40
2018-01-13T11:26:14.958Z,27.70
2018-01-13T11:27:14.920Z,26.60
2018-01-13T11:28:14.880Z,27.30
2018-01-13T11:29:14.849Z,26.60
2018-01-13T11:30:14.806Z,23.70
2018-01-13T11:31:14.767Z,28.20
2018-01-13T11:32:14.727Z,28.60
2018-01-13T11:33:14.691Z,27.90
2018-01-13T11:34:14.651Z,24.60
2018-01-13T11:35:14.613Z,31.40
2018-01-13T11:36:14.576Z,31.60
2018-01-13T11:37:14.535Z,26.30
2018-01-13T11:38:14.497Z,29.60
2018-01-13T11:39:14.461Z,29.40
2018-01-13T11:40:14.425Z,27.70
2018-01-13T11:41:14.386Z,27.40
2018-01-13T11:42:14.347Z,29.40
2018-01-13T11:43:14.309Z,27.30
2018-01-13T11:44:14.272Z,29.60
2018-01-13T11:45:14.232Z,24.40
2018-01-13T11:46:14.199Z,24.00
2018-01-13T11:47:14.162Z,25.30
2018-01-13T11:48:14.123Z,28.10
2018-01-13T11:49:14.088Z,23.40
2018-01-13T11:50:14.050Z,34.40
2018-01-13T11:51:14.013Z,26.50
2018-01-13T11:52:13.977Z,29.20
2018-01-13T11:53:13.941Z,29.30
2018-01-13T11:54:13.903Z,28.90
2018-01-13T11:55:13.866Z,24.50
2018-01-13T11:56:13.837Z,25.60
2018-01-13T11:57:13.793Z,24.60
2018-01-13T11:58:13.761Z,26.20
2018-01-13T11:59:13.723Z,25.20
2018-01-13T12:00:13.689Z,26.90
2018-01-13T12:01:13.652Z,25.80
2018-01-13T12:02:13.616Z,24.60
2018-01-13T12:03:13.576Z,26.50
2018-01-13T12:04:13.547Z,23.60
2018-01-13T12:05:13.509Z,28.20
2018-01-13T12:06:13.478Z,28.00
2018-01-13T12:07:13.440Z,25.20
2018-01-13T12:08:13.409Z,25.80
2018-01-13T12:09:13.371Z,25.80
2018-01-13T12:10:13.336Z,25.90
2018-01-13T12:11:13.302Z,27.60
2018-01-13T12:12:13.269Z,28.30
2018-01-13T12:13:13.232Z,26.70
2018-01-13T12:14:13.197Z,29.50
2018-01-13T12:15:13.167Z,21.30
2018-01-13T12:16:13.126Z,24.10
2018-01-13T12:17:13.094Z,21.80
2018-01-13T12:18:13.057Z,24.60
2018-01-13T12:19:13.023Z,22.80
2018-01-13T12:20:12.991Z,26.10
2018-01-13T12:21:12.953Z,26.00
2018-01-13T12:22:12.919Z,23.10
2018-01-13T12:23:12.888Z,27.20
2018-01-13T12:24:12.853Z,26.30
2018-01-13T12:25:12.818Z,27.20
2018-01-13T12:26:12.779Z,26.60
2018-01-13T12:27:12.745Z,24.40
2018-01-13T12:28:12.715Z,24.60
2018-01-13T12:29:12.672Z,25.80
2018-01-13T12:30:12.634Z,26.60
2018-01-13T12:31:12.598Z,22.50
2018-01-13T12:32:12.567Z,24.20
2018-01-13T12:33:12.529Z,27.90
2018-01-13T12:34:12.490Z,27.10
2018-01-13T12:35:12.454Z,28.80
2018-01-13T12:36:12.414Z,25.40
2018-01-13T12:37:12.381Z,24.30
2018-01-13T12:38:12.339Z,22.30
2018-01-13T12:39:12.304Z,25.30